Meteo Giornale » Osservazioni meteo Brasile » Campo Grande Aeroporto
ore: 02:00 - Osservazioni Meteo Campo Grande Aeroporto
Lat. 20° 28' S Lon. 54° 40' W Alt. 567 metri s.l.m.
21 °C
Temporale
Temp. 24 Ore
21 °C
35 °C
Nord
5.5 Km/h
Dew point 21 °C
Umidità 100 %
Visibilità 9 Km
Il sole sorge alle ore 05:47
Il sole tramonta alle ore 17:30
| Data e Ora | Cielo e Fenomeni | T °C | DP °C | Um. % | Pres. hPa | Vis. km | Vento km/h | |
|---|---|---|---|---|---|---|---|---|
| Oggi h: 02:00 | Temporale | 21 | 21 | 100 | 1012 | 9 | N 5.5 | |
| Oggi h: 01:13 | Temporale | 22 | 21 | 94 | 1014 | 4 | O/NO 29.6 | |
| Oggi h: 01:00 | Temporale | 22 | 21 | 94 | 1012 | 10 | S/SO 9.3 | |
| Oggi h: 00:13 | Temporale | 22 | 21 | 94 | 1013 | 7 | O/SO 33.3 | |
| Oggi h: 00:00 | Temporale | 22 | 21 | 94 | 1012 | 10 | S 13 | |
| Ieri h: 23:00 | Temporale | 26 | 20 | 69 | 1013 | 10 | SO 35.2 | |
| Ieri h: 22:47 | Temporale nelle vicinanze | 27 | 19 | 61 | 1012 | 10 | SO 27.8 | |
| Ieri h: 22:00 | Temporale nelle vicinanze | 28 | 18 | 54 | 1010 | 10 | N 11.1 | |
| Ieri h: 21:00 | Poco Nuvoloso | 28 | 18 | 54 | 1010 | 10 | NO 11.1 | |
| Ieri h: 20:00 | Poco Nuvoloso | 29 | 18 | 51 | 1009 | 10 | N/NO 11.1 | |
| Ieri h: 19:00 | Poco Nuvoloso | 30 | 18 | 48 | 1008 | 10 | N/NO 16.7 | |
| Ieri h: 18:00 | Poco Nuvoloso | 32 | 17 | 40 | 1007 | 10 | NO 20.3 | |
| Ieri h: 17:00 | Nuvoloso | 33 | 17 | 38 | 1008 | 10 | NO 22.2 | |
| Ieri h: 16:00 | Nuvoloso | 34 | 17 | 36 | 1007 | 10 | N/NO 29.6 | |
| Ieri h: 15:00 | Nuvoloso | 35 | 17 | 34 | 1008 | 10 | NO 31.5 | |
| Ieri h: 14:00 | Nuvoloso | 35 | 19 | 39 | 1009 | 10 | NO 25.9 | |
| Ieri h: 13:00 | Nuvoloso | 35 | 18 | 36 | 1010 | 10 | NO 27.8 | |
| Ieri h: 12:00 | Nuvoloso | 34 | 20 | 43 | 1011 | 10 | NO 20.3 | |
| Ieri h: 11:00 | Poco Nuvoloso | 34 | 20 | 43 | 1012 | 10 | NO 25.9 | |
| Ieri h: 10:00 | Sereno | 33 | 19 | 43 | 1012 | 10 | NO 24 | |
| Ieri h: 09:00 | Sereno | 32 | 19 | 46 | 1012 | 10 | N/NO 22.2 | |
| Ieri h: 08:00 | Sereno | 30 | 20 | 55 | 1012 | 10 | N 16.7 | |
| Ieri h: 07:00 | Sereno | 28 | 19 | 58 | 1011 | 10 | N 16.7 | |
| Ieri h: 06:00 | Sereno | 25 | 19 | 69 | 1011 | 10 | N 14.8 | |
| Ieri h: 05:00 | Sereno | 25 | 19 | 69 | 1010 | 10 | N 14.8 | |
| Ieri h: 04:00 | Sereno | 26 | 19 | 65 | 1010 | 10 | N 13 | |
| Ieri h: 03:00 | Sereno | 26 | 19 | 65 | 1010 | 10 | N 11.1 | |



